Nagaleader — VRDD5 — position and weather

sailwx.info

Track history (hours):
 
Tides and Currents Weather Stations Pressure Air Temp Water Temp Dewpoint Dewpoint Depression Visibility Wind Speed Wind Dir Waves Ship Positions

Nagaleader

Last reported at 2016-Dec-08 02:30 UTC. Time now 2016-Dec-08 14:28 UTC.
Position N 26°04' E 119°31'.

Length 113 m; draft 7.2 m.

Type: Cargo ship. MMSI: 477926700.

Date/timePositionNaut miles runAvg speedWind from/ knotsBaromVisibWave heightAir tempDewpointWater temp
2016-Dec-08 02:30N 26°04' E 119°31'4 3.1
2016-Dec-08 01:04N 26°00' E 119°29'0 0.0
2016-Dec-08 00:28N 26°00' E 119°29'0 0.0
2016-Dec-07 23:22N 26°00' E 119°29'0 0.0
2016-Dec-07 22:16N 26°00' E 119°29'0 0.0
2016-Dec-07 21:04N 26°00' E 119°29'0 0.0
2016-Dec-07 19:28N 26°00' E 119°29'0 0.0
2016-Dec-07 18:28N 26°00' E 119°29'0 0.0
2016-Dec-07 17:28N 26°00' E 119°29'0 0.0
2016-Dec-07 16:22N 26°00' E 119°29'0 0.0
2016-Dec-07 15:10N 26°00' E 119°29'0 0.0
2016-Dec-07 14:28N 26°00' E 119°29'0 0.0
2016-Dec-07 13:28N 26°00' E 119°29'0 0.1
2016-Dec-07 11:11N 26°01' E 119°29'2 3.9
2016-Dec-07 10:33N 26°03' E 119°30'194 6.4
2016-Dec-06 04:27N 22°50' E 119°54'1112.0
2016-Dec-06 03:33N 22°44' E 120°04'1212.1
2016-Dec-06 02:33N 22°37' E 120°15'5 4.0
2016-Dec-06 01:17N 22°34' E 120°19'0 0.0
2016-Dec-06 00:29N 22°34' E 120°19'0 0.0
2016-Dec-05 20:10N 22°34' E 120°19'0 0.0
2016-Dec-05 17:28N 22°34' E 120°19'0 0.0
2016-Dec-05 16:28N 22°34' E 120°19'0 0.0
2016-Dec-05 15:28N 22°34' E 120°19'0 0.0
2016-Dec-05 14:28N 22°34' E 120°19'0 0.0
2016-Dec-05 13:28N 22°34' E 120°19'0 0.0
2016-Dec-05 12:33N 22°34' E 120°19'6 6.2
2016-Dec-05 11:33N 22°30' E 120°14'2 2.1
2016-Dec-05 10:33N 22°28' E 120°12'2 1.8
2016-Dec-05 09:33N 22°30' E 120°11'7 6.9
2016-Dec-05 08:33N 22°36' E 120°09'20910.4
2016-Dec-04 12:23N 26°02' E 119°30'3 3.0
2016-Dec-04 11:32N 26°00' E 119°29'0 0.0
2016-Dec-04 10:32N 26°00' E 119°29'0 0.0
2016-Dec-04 09:26N 26°00' E 119°29'0 0.0
2016-Dec-04 08:31N 26°00' E 119°29'0 0.0
2016-Dec-04 07:31N 26°00' E 119°29'0 0.0
2016-Dec-04 06:25N 26°00' E 119°29'0 0.0
2016-Dec-04 05:19N 26°00' E 119°29'0 0.0
2016-Dec-04 04:31N 26°00' E 119°29'0 0.0
2016-Dec-04 03:31N 26°00' E 119°29'0 0.0
2016-Dec-04 02:13N 26°00' E 119°29'0 0.0
2016-Dec-03 22:31N 26°00' E 119°29'0 0.0
2016-Dec-03 21:31N 26°00' E 119°29'0 0.0
2016-Dec-03 20:31N 26°00' E 119°29'0 0.0
2016-Dec-03 19:31N 26°00' E 119°29'0 0.0
2016-Dec-03 18:31N 26°00' E 119°29'0 0.0
2016-Dec-03 17:31N 26°00' E 119°29'194 8.1
2016-Dec-02 17:33N 22°49' E 120°06'1212.3
2016-Dec-02 16:33N 22°38' E 120°11'8 8.4
2016-Dec-02 15:33N 22°33' E 120°19'0 0.5
2016-Dec-02 14:33N 22°34' E 120°19'0 0.0
2016-Dec-02 13:27N 22°34' E 120°19'0 0.0
2016-Dec-02 12:27N 22°34' E 120°19'0 0.0
2016-Dec-02 11:27N 22°34' E 120°19'0 0.0
2016-Dec-02 10:27N 22°34' E 120°19'0 0.0
2016-Dec-02 09:33N 22°34' E 120°19'0 0.0
2016-Dec-02 07:15N 22°34' E 120°19'0 0.0
2016-Dec-02 06:33N 22°34' E 120°19'0 0.0
2016-Dec-02 05:21N 22°34' E 120°19'0 0.0
2016-Dec-02 04:27N 22°34' E 120°19'0 0.0
2016-Dec-02 03:33N 22°34' E 120°19'0 0.0
2016-Dec-02 02:33N 22°34' E 120°19'2 2.4
2016-Dec-02 01:34N 22°33' E 120°16'2 1.6
2016-Dec-02 00:33N 22°32' E 120°15'7 7.4
2016-Dec-01 23:33N 22°38' E 120°09'1110.7
2016-Dec-01 22:33N 22°48' E 120°05'19711.5
2016-Dec-01 05:23N 26°02' E 119°30'2 1.3
2016-Dec-01 03:30N 26°00' E 119°29'0 0.0
2016-Dec-01 02:17N 26°00' E 119°29'0 0.0
2016-Dec-01 01:12N 26°00' E 119°29'0 0.0
2016-Nov-30 21:24N 26°00' E 119°29'0 0.0
2016-Nov-30 20:30N 26°00' E 119°29'0 0.0
2016-Nov-30 19:24N 26°00' E 119°29'0 0.0
2016-Nov-30 18:29N 26°00' E 119°29'0 0.0
2016-Nov-30 17:24N 26°00' E 119°29'0 0.0
2016-Nov-30 16:29N 26°00' E 119°29'0 0.0
2016-Nov-30 15:17N 26°00' E 119°29'0 0.0
2016-Nov-30 12:29N 26°00' E 119°29'68 2.3
2016-Nov-29 06:33N 24°54' E 119°17'8 8.1
2016-Nov-29 05:31N 24°47' E 119°11'8 8.0
2016-Nov-29 04:33N 24°39' E 119°10'7 7.3
2016-Nov-29 03:31N 24°32' E 119°12'109 8.1
2016-Nov-28 14:09N 22°50' E 119°53'712.6
2016-Nov-28 13:33N 22°44' E 119°58'1212.4
2016-Nov-28 12:33N 22°35' E 120°07'5 4.5
2016-Nov-28 11:33N 22°33' E 120°11'8 1.1
2016-Nov-28 04:23N 22°33' E 120°20'  
Track history (hours):
 
Tides and Currents Weather Stations Pressure Air Temp Water Temp Dewpoint Dewpoint Depression Visibility Wind Speed Wind Dir Waves Ship Positions

Nagaleader

Last reported at 2016-Dec-08 02:30 UTC. Time now 2016-Dec-08 14:28 UTC.
Position N 26°04' E 119°31'.

Length 113 m; draft 7.2 m.

Type: Cargo ship. MMSI: 477926700.

Date/timePositionNaut miles runAvg speedWind from/ knotsBaromVisibWave heightAir tempDewpointWater temp
2016-Dec-08 02:30N 26°04' E 119°31'4 3.1
2016-Dec-08 01:04N 26°00' E 119°29'0 0.0
2016-Dec-08 00:28N 26°00' E 119°29'0 0.0
2016-Dec-07 23:22N 26°00' E 119°29'0 0.0
2016-Dec-07 22:16N 26°00' E 119°29'0 0.0
2016-Dec-07 21:04N 26°00' E 119°29'0 0.0
2016-Dec-07 19:28N 26°00' E 119°29'0 0.0
2016-Dec-07 18:28N 26°00' E 119°29'0 0.0
2016-Dec-07 17:28N 26°00' E 119°29'0 0.0
2016-Dec-07 16:22N 26°00' E 119°29'0 0.0
2016-Dec-07 15:10N 26°00' E 119°29'0 0.0
2016-Dec-07 14:28N 26°00' E 119°29'0 0.0
2016-Dec-07 13:28N 26°00' E 119°29'0 0.1
2016-Dec-07 11:11N 26°01' E 119°29'2 3.9
2016-Dec-07 10:33N 26°03' E 119°30'194 6.4
2016-Dec-06 04:27N 22°50' E 119°54'1112.0
2016-Dec-06 03:33N 22°44' E 120°04'1212.1
2016-Dec-06 02:33N 22°37' E 120°15'5 4.0
2016-Dec-06 01:17N 22°34' E 120°19'0 0.0
2016-Dec-06 00:29N 22°34' E 120°19'0 0.0
2016-Dec-05 20:10N 22°34' E 120°19'0 0.0
2016-Dec-05 17:28N 22°34' E 120°19'0 0.0
2016-Dec-05 16:28N 22°34' E 120°19'0 0.0
2016-Dec-05 15:28N 22°34' E 120°19'0 0.0
2016-Dec-05 14:28N 22°34' E 120°19'0 0.0
2016-Dec-05 13:28N 22°34' E 120°19'0 0.0
2016-Dec-05 12:33N 22°34' E 120°19'6 6.2
2016-Dec-05 11:33N 22°30' E 120°14'2 2.1
2016-Dec-05 10:33N 22°28' E 120°12'2 1.8
2016-Dec-05 09:33N 22°30' E 120°11'7 6.9
2016-Dec-05 08:33N 22°36' E 120°09'20910.4
2016-Dec-04 12:23N 26°02' E 119°30'3 3.0
2016-Dec-04 11:32N 26°00' E 119°29'0 0.0
2016-Dec-04 10:32N 26°00' E 119°29'0 0.0
2016-Dec-04 09:26N 26°00' E 119°29'0 0.0
2016-Dec-04 08:31N 26°00' E 119°29'0 0.0
2016-Dec-04 07:31N 26°00' E 119°29'0 0.0
2016-Dec-04 06:25N 26°00' E 119°29'0 0.0
2016-Dec-04 05:19N 26°00' E 119°29'0 0.0
2016-Dec-04 04:31N 26°00' E 119°29'0 0.0
2016-Dec-04 03:31N 26°00' E 119°29'0 0.0
2016-Dec-04 02:13N 26°00' E 119°29'0 0.0
2016-Dec-03 22:31N 26°00' E 119°29'0 0.0
2016-Dec-03 21:31N 26°00' E 119°29'0 0.0
2016-Dec-03 20:31N 26°00' E 119°29'0 0.0
2016-Dec-03 19:31N 26°00' E 119°29'0 0.0
2016-Dec-03 18:31N 26°00' E 119°29'0 0.0
2016-Dec-03 17:31N 26°00' E 119°29'194 8.1
2016-Dec-02 17:33N 22°49' E 120°06'1212.3
2016-Dec-02 16:33N 22°38' E 120°11'8 8.4
2016-Dec-02 15:33N 22°33' E 120°19'0 0.5
2016-Dec-02 14:33N 22°34' E 120°19'0 0.0
2016-Dec-02 13:27N 22°34' E 120°19'0 0.0
2016-Dec-02 12:27N 22°34' E 120°19'0 0.0
2016-Dec-02 11:27N 22°34' E 120°19'0 0.0
2016-Dec-02 10:27N 22°34' E 120°19'0 0.0
2016-Dec-02 09:33N 22°34' E 120°19'0 0.0
2016-Dec-02 07:15N 22°34' E 120°19'0 0.0
2016-Dec-02 06:33N 22°34' E 120°19'0 0.0
2016-Dec-02 05:21N 22°34' E 120°19'0 0.0
2016-Dec-02 04:27N 22°34' E 120°19'0 0.0
2016-Dec-02 03:33N 22°34' E 120°19'0 0.0
2016-Dec-02 02:33N 22°34' E 120°19'2 2.4
2016-Dec-02 01:34N 22°33' E 120°16'2 1.6
2016-Dec-02 00:33N 22°32' E 120°15'7 7.4
2016-Dec-01 23:33N 22°38' E 120°09'1110.7
2016-Dec-01 22:33N 22°48' E 120°05'19711.5
2016-Dec-01 05:23N 26°02' E 119°30'2 1.3
2016-Dec-01 03:30N 26°00' E 119°29'0 0.0
2016-Dec-01 02:17N 26°00' E 119°29'0 0.0
2016-Dec-01 01:12N 26°00' E 119°29'0 0.0
2016-Nov-30 21:24N 26°00' E 119°29'0 0.0
2016-Nov-30 20:30N 26°00' E 119°29'0 0.0
2016-Nov-30 19:24N 26°00' E 119°29'0 0.0
2016-Nov-30 18:29N 26°00' E 119°29'0 0.0
2016-Nov-30 17:24N 26°00' E 119°29'0 0.0
2016-Nov-30 16:29N 26°00' E 119°29'0 0.0
2016-Nov-30 15:17N 26°00' E 119°29'0 0.0
2016-Nov-30 12:29N 26°00' E 119°29'68 2.3
2016-Nov-29 06:33N 24°54' E 119°17'8 8.1
2016-Nov-29 05:31N 24°47' E 119°11'8 8.0
2016-Nov-29 04:33N 24°39' E 119°10'7 7.3
2016-Nov-29 03:31N 24°32' E 119°12'109 8.1
2016-Nov-28 14:09N 22°50' E 119°53'712.6
2016-Nov-28 13:33N 22°44' E 119°58'1212.4
2016-Nov-28 12:33N 22°35' E 120°07'5 4.5
2016-Nov-28 11:33N 22°33' E 120°11'8 1.1
2016-Nov-28 04:23N 22°33' E 120°20'  

Dump ship's entire track history